sensor_id;sensor_type;location;lat;lon;timestamp;P1;durP1;ratioP1;P2;durP2;ratioP2
76176;SDS011;64938;47.696;8.066;2023-04-25T00:26:11;8.40;;;5.20;;
76176;SDS011;64938;47.696;8.066;2023-04-25T00:28:38;4.93;;;4.43;;
76176;SDS011;64938;47.696;8.066;2023-04-25T00:31:04;5.60;;;4.70;;
76176;SDS011;64938;47.696;8.066;2023-04-25T00:33:30;5.43;;;4.80;;
76176;SDS011;64938;47.696;8.066;2023-04-25T00:35:55;6.43;;;5.07;;
76176;SDS011;64938;47.696;8.066;2023-04-25T00:38:21;6.53;;;5.27;;
76176;SDS011;64938;47.696;8.066;2023-04-25T00:40:47;7.70;;;4.77;;
76176;SDS011;64938;47.696;8.066;2023-04-25T00:43:13;6.07;;;5.00;;
76176;SDS011;64938;47.696;8.066;2023-04-25T00:45:39;5.47;;;4.97;;
76176;SDS011;64938;47.696;8.066;2023-04-25T00:48:08;5.77;;;4.90;;
76176;SDS011;64938;47.696;8.066;2023-04-25T00:50:34;6.17;;;4.70;;
76176;SDS011;64938;47.696;8.066;2023-04-25T00:53:01;9.40;;;5.60;;
76176;SDS011;64938;47.696;8.066;2023-04-25T00:55:28;7.57;;;5.10;;
76176;SDS011;64938;47.696;8.066;2023-04-25T00:57:55;10.00;;;6.10;;
76176;SDS011;64938;47.696;8.066;2023-04-25T01:00:20;6.77;;;5.40;;
76176;SDS011;64938;47.696;8.066;2023-04-25T01:02:46;7.13;;;5.90;;
76176;SDS011;64938;47.696;8.066;2023-04-25T01:05:12;7.50;;;6.27;;
76176;SDS011;64938;47.696;8.066;2023-04-25T01:07:38;8.60;;;6.00;;
76176;SDS011;64938;47.696;8.066;2023-04-25T01:10:05;8.40;;;6.80;;
76176;SDS011;64938;47.696;8.066;2023-04-25T01:12:31;10.30;;;6.57;;
76176;SDS011;64938;47.696;8.066;2023-04-25T01:14:57;9.30;;;7.30;;
76176;SDS011;64938;47.696;8.066;2023-04-25T01:17:23;9.67;;;7.00;;
76176;SDS011;64938;47.696;8.066;2023-04-25T01:19:49;9.70;;;6.90;;
76176;SDS011;64938;47.696;8.066;2023-04-25T01:22:15;7.67;;;6.60;;
76176;SDS011;64938;47.696;8.066;2023-04-25T01:24:42;7.60;;;6.60;;
76176;SDS011;64938;47.696;8.066;2023-04-25T01:27:07;10.20;;;7.17;;
76176;SDS011;64938;47.696;8.066;2023-04-25T01:29:36;12.23;;;6.73;;
76176;SDS011;64938;47.696;8.066;2023-04-25T01:32:02;8.70;;;7.30;;
76176;SDS011;64938;47.696;8.066;2023-04-25T01:34:28;7.93;;;6.97;;
76176;SDS011;64938;47.696;8.066;2023-04-25T01:36:54;8.53;;;6.90;;
76176;SDS011;64938;47.696;8.066;2023-04-25T01:39:20;10.97;;;7.30;;
76176;SDS011;64938;47.696;8.066;2023-04-25T01:41:46;9.60;;;7.30;;
76176;SDS011;64938;47.696;8.066;2023-04-25T01:44:13;8.33;;;6.60;;
76176;SDS011;64938;47.696;8.066;2023-04-25T01:46:40;9.73;;;7.03;;
76176;SDS011;64938;47.696;8.066;2023-04-25T01:49:06;11.10;;;7.50;;
76176;SDS011;64938;47.696;8.066;2023-04-25T01:51:35;8.30;;;6.47;;
76176;SDS011;64938;47.696;8.066;2023-04-25T01:54:01;7.00;;;6.13;;
76176;SDS011;64938;47.696;8.066;2023-04-25T01:56:30;10.27;;;6.70;;
76176;SDS011;64938;47.696;8.066;2023-04-25T01:58:57;13.60;;;7.17;;
76176;SDS011;64938;47.696;8.066;2023-04-25T02:01:23;9.27;;;7.10;;
76176;SDS011;64938;47.696;8.066;2023-04-25T02:03:48;11.33;;;8.20;;
76176;SDS011;64938;47.696;8.066;2023-04-25T02:06:15;11.93;;;7.43;;
76176;SDS011;64938;47.696;8.066;2023-04-25T02:08:41;7.37;;;6.67;;
76176;SDS011;64938;47.696;8.066;2023-04-25T02:11:06;10.43;;;7.37;;
76176;SDS011;64938;47.696;8.066;2023-04-25T02:13:32;9.53;;;7.27;;
76176;SDS011;64938;47.696;8.066;2023-04-25T02:15:58;10.60;;;7.23;;
76176;SDS011;64938;47.696;8.066;2023-04-25T02:18:23;8.00;;;7.20;;
76176;SDS011;64938;47.696;8.066;2023-04-25T02:20:51;9.60;;;6.90;;
76176;SDS011;64938;47.696;8.066;2023-04-25T02:23:17;9.43;;;6.57;;
76176;SDS011;64938;47.696;8.066;2023-04-25T02:25:44;15.50;;;8.00;;
76176;SDS011;64938;47.696;8.066;2023-04-25T02:28:10;14.67;;;7.87;;
76176;SDS011;64938;47.696;8.066;2023-04-25T02:30:36;9.90;;;7.43;;
76176;SDS011;64938;47.696;8.066;2023-04-25T02:33:01;13.03;;;8.33;;
76176;SDS011;64938;47.696;8.066;2023-04-25T02:35:27;18.53;;;7.30;;
76176;SDS011;64938;47.696;8.066;2023-04-25T02:37:54;9.90;;;7.37;;
76176;SDS011;64938;47.696;8.066;2023-04-25T02:40:19;9.67;;;7.37;;
76176;SDS011;64938;47.696;8.066;2023-04-25T02:42:45;10.73;;;7.50;;
76176;SDS011;64938;47.696;8.066;2023-04-25T02:45:11;8.80;;;7.00;;
76176;SDS011;64938;47.696;8.066;2023-04-25T02:47:37;9.80;;;6.60;;
76176;SDS011;64938;47.696;8.066;2023-04-25T02:50:03;7.67;;;6.83;;
76176;SDS011;64938;47.696;8.066;2023-04-25T02:52:30;8.63;;;6.00;;
76176;SDS011;64938;47.696;8.066;2023-04-25T02:54:59;9.50;;;6.83;;
76176;SDS011;64938;47.696;8.066;2023-04-25T02:57:25;10.67;;;6.83;;
76176;SDS011;64938;47.696;8.066;2023-04-25T02:59:50;10.67;;;7.40;;
76176;SDS011;64938;47.696;8.066;2023-04-25T03:02:16;10.57;;;6.37;;
76176;SDS011;64938;47.696;8.066;2023-04-25T03:04:42;10.00;;;6.80;;
76176;SDS011;64938;47.696;8.066;2023-04-25T03:07:07;10.77;;;6.43;;
76176;SDS011;64938;47.696;8.066;2023-04-25T03:09:33;9.43;;;7.03;;
76176;SDS011;64938;47.696;8.066;2023-04-25T03:11:59;8.43;;;7.33;;
76176;SDS011;64938;47.696;8.066;2023-04-25T03:14:25;10.00;;;5.90;;
76176;SDS011;64938;47.696;8.066;2023-04-25T03:16:51;8.70;;;6.00;;
76176;SDS011;64938;47.696;8.066;2023-04-25T03:19:16;7.70;;;6.13;;
76176;SDS011;64938;47.696;8.066;2023-04-25T03:21:43;9.60;;;6.97;;
76176;SDS011;64938;47.696;8.066;2023-04-25T03:24:09;7.20;;;6.50;;
76176;SDS011;64938;47.696;8.066;2023-04-25T03:26:36;10.80;;;8.30;;
76176;SDS011;64938;47.696;8.066;2023-04-25T03:29:02;11.43;;;8.37;;
76176;SDS011;64938;47.696;8.066;2023-04-25T03:31:28;13.57;;;8.47;;
76176;SDS011;64938;47.696;8.066;2023-04-25T03:33:54;9.70;;;8.70;;
76176;SDS011;64938;47.696;8.066;2023-04-25T03:36:19;13.93;;;8.57;;
76176;SDS011;64938;47.696;8.066;2023-04-25T03:38:45;12.40;;;8.53;;
76176;SDS011;64938;47.696;8.066;2023-04-25T03:41:10;12.17;;;8.50;;
76176;SDS011;64938;47.696;8.066;2023-04-25T03:43:36;10.97;;;7.93;;
76176;SDS011;64938;47.696;8.066;2023-04-25T03:46:01;19.13;;;9.17;;
76176;SDS011;64938;47.696;8.066;2023-04-25T03:48:27;10.97;;;7.90;;
76176;SDS011;64938;47.696;8.066;2023-04-25T03:50:53;12.67;;;8.30;;
76176;SDS011;64938;47.696;8.066;2023-04-25T03:53:19;11.30;;;7.87;;
76176;SDS011;64938;47.696;8.066;2023-04-25T03:55:45;11.70;;;8.00;;
76176;SDS011;64938;47.696;8.066;2023-04-25T03:58:10;12.30;;;8.20;;
76176;SDS011;64938;47.696;8.066;2023-04-25T04:00:36;15.03;;;8.70;;
76176;SDS011;64938;47.696;8.066;2023-04-25T04:03:01;12.67;;;8.00;;
76176;SDS011;64938;47.696;8.066;2023-04-25T04:05:27;14.53;;;7.70;;
76176;SDS011;64938;47.696;8.066;2023-04-25T04:07:54;14.00;;;7.33;;
76176;SDS011;64938;47.696;8.066;2023-04-25T04:10:20;14.13;;;8.03;;
76176;SDS011;64938;47.696;8.066;2023-04-25T04:12:46;10.20;;;8.20;;
76176;SDS011;64938;47.696;8.066;2023-04-25T04:15:12;11.37;;;8.13;;
76176;SDS011;64938;47.696;8.066;2023-04-25T04:17:37;17.83;;;9.47;;
76176;SDS011;64938;47.696;8.066;2023-04-25T04:20:04;10.77;;;7.57;;
76176;SDS011;64938;47.696;8.066;2023-04-25T04:22:31;9.43;;;6.90;;
76176;SDS011;64938;47.696;8.066;2023-04-25T04:24:56;10.40;;;7.20;;
76176;SDS011;64938;47.696;8.066;2023-04-25T04:27:22;8.80;;;6.23;;
76176;SDS011;64938;47.696;8.066;2023-04-25T04:29:48;9.20;;;7.13;;
76176;SDS011;64938;47.696;8.066;2023-04-25T04:32:14;6.57;;;5.83;;
76176;SDS011;64938;47.696;8.066;2023-04-25T04:34:40;8.60;;;6.83;;
76176;SDS011;64938;47.696;8.066;2023-04-25T04:37:06;11.93;;;7.90;;
76176;SDS011;64938;47.696;8.066;2023-04-25T04:39:34;9.50;;;6.90;;
76176;SDS011;64938;47.696;8.066;2023-04-25T04:42:00;11.37;;;6.90;;
76176;SDS011;64938;47.696;8.066;2023-04-25T04:44:27;13.27;;;6.97;;
76176;SDS011;64938;47.696;8.066;2023-04-25T04:46:53;8.50;;;7.00;;
76176;SDS011;64938;47.696;8.066;2023-04-25T04:49:20;7.90;;;6.60;;
76176;SDS011;64938;47.696;8.066;2023-04-25T04:51:46;10.90;;;7.00;;
76176;SDS011;64938;47.696;8.066;2023-04-25T04:54:12;8.77;;;6.47;;
76176;SDS011;64938;47.696;8.066;2023-04-25T04:56:38;13.50;;;8.20;;
76176;SDS011;64938;47.696;8.066;2023-04-25T04:59:04;12.03;;;7.30;;
76176;SDS011;64938;47.696;8.066;2023-04-25T05:01:30;9.10;;;8.10;;
76176;SDS011;64938;47.696;8.066;2023-04-25T05:03:56;8.93;;;7.30;;
76176;SDS011;64938;47.696;8.066;2023-04-25T05:06:29;10.73;;;7.30;;
76176;SDS011;64938;47.696;8.066;2023-04-25T05:08:56;11.30;;;6.80;;
76176;SDS011;64938;47.696;8.066;2023-04-25T05:11:22;8.77;;;6.87;;
76176;SDS011;64938;47.696;8.066;2023-04-25T05:13:51;12.33;;;7.10;;
76176;SDS011;64938;47.696;8.066;2023-04-25T05:16:19;10.67;;;7.30;;
76176;SDS011;64938;47.696;8.066;2023-04-25T05:18:45;9.47;;;6.70;;
76176;SDS011;64938;47.696;8.066;2023-04-25T05:21:11;7.23;;;6.10;;
76176;SDS011;64938;47.696;8.066;2023-04-25T05:23:37;7.77;;;5.90;;
76176;SDS011;64938;47.696;8.066;2023-04-25T05:26:03;11.13;;;6.10;;
76176;SDS011;64938;47.696;8.066;2023-04-25T05:28:28;9.83;;;5.93;;
76176;SDS011;64938;47.696;8.066;2023-04-25T05:30:54;8.90;;;5.20;;
76176;SDS011;64938;47.696;8.066;2023-04-25T05:33:20;5.87;;;5.27;;
76176;SDS011;64938;47.696;8.066;2023-04-25T05:35:48;7.30;;;5.13;;
76176;SDS011;64938;47.696;8.066;2023-04-25T05:38:15;6.80;;;5.17;;
76176;SDS011;64938;47.696;8.066;2023-04-25T05:40:40;6.83;;;4.80;;
76176;SDS011;64938;47.696;8.066;2023-04-25T05:43:06;4.73;;;4.27;;
76176;SDS011;64938;47.696;8.066;2023-04-25T05:45:32;5.30;;;4.07;;
76176;SDS011;64938;47.696;8.066;2023-04-25T05:47:57;4.33;;;3.00;;
76176;SDS011;64938;47.696;8.066;2023-04-25T05:50:24;3.50;;;3.00;;
76176;SDS011;64938;47.696;8.066;2023-04-25T05:52:50;3.43;;;2.90;;
76176;SDS011;64938;47.696;8.066;2023-04-25T05:55:15;2.93;;;2.20;;
76176;SDS011;64938;47.696;8.066;2023-04-25T05:57:41;3.03;;;2.40;;
76176;SDS011;64938;47.696;8.066;2023-04-25T06:00:11;3.57;;;2.37;;
76176;SDS011;64938;47.696;8.066;2023-04-25T06:02:37;2.33;;;1.87;;
76176;SDS011;64938;47.696;8.066;2023-04-25T06:05:03;1.83;;;1.67;;
76176;SDS011;64938;47.696;8.066;2023-04-25T06:07:29;2.13;;;1.67;;
76176;SDS011;64938;47.696;8.066;2023-04-25T06:09:55;1.33;;;1.23;;
76176;SDS011;64938;47.696;8.066;2023-04-25T06:12:22;2.00;;;1.07;;
76176;SDS011;64938;47.696;8.066;2023-04-25T06:14:48;1.20;;;1.10;;
76176;SDS011;64938;47.696;8.066;2023-04-25T06:17:13;1.63;;;0.90;;
76176;SDS011;64938;47.696;8.066;2023-04-25T06:19:39;1.20;;;1.10;;
76176;SDS011;64938;47.696;8.066;2023-04-25T06:22:05;1.47;;;1.10;;
76176;SDS011;64938;47.696;8.066;2023-04-25T06:24:33;1.47;;;1.10;;
76176;SDS011;64938;47.696;8.066;2023-04-25T06:26:59;1.83;;;1.00;;
76176;SDS011;64938;47.696;8.066;2023-04-25T06:29:25;1.57;;;1.03;;
76176;SDS011;64938;47.696;8.066;2023-04-25T06:31:51;0.80;;;0.80;;
76176;SDS011;64938;47.696;8.066;2023-04-25T06:34:16;0.80;;;0.80;;
76176;SDS011;64938;47.696;8.066;2023-04-25T06:36:42;0.70;;;0.67;;
76176;SDS011;64938;47.696;8.066;2023-04-25T06:39:09;0.50;;;0.50;;
76176;SDS011;64938;47.696;8.066;2023-04-25T06:41:35;0.70;;;0.57;;
76176;SDS011;64938;47.696;8.066;2023-04-25T06:44:01;1.03;;;1.00;;
76176;SDS011;64938;47.696;8.066;2023-04-25T06:46:27;1.60;;;1.33;;
76176;SDS011;64938;47.696;8.066;2023-04-25T06:48:52;2.53;;;2.33;;
76176;SDS011;64938;47.696;8.066;2023-04-25T06:51:18;0.60;;;0.60;;
76176;SDS011;64938;47.696;8.066;2023-04-25T06:53:43;0.90;;;0.90;;
76176;SDS011;64938;47.696;8.066;2023-04-25T06:56:09;0.83;;;0.60;;
76176;SDS011;64938;47.696;8.066;2023-04-25T06:58:35;0.80;;;0.70;;
76176;SDS011;64938;47.696;8.066;2023-04-25T07:01:02;0.90;;;0.80;;
76176;SDS011;64938;47.696;8.066;2023-04-25T07:03:28;0.70;;;0.60;;
76176;SDS011;64938;47.696;8.066;2023-04-25T07:05:53;0.80;;;0.67;;
76176;SDS011;64938;47.696;8.066;2023-04-25T07:08:19;1.67;;;0.80;;
76176;SDS011;64938;47.696;8.066;2023-04-25T07:10:46;1.47;;;0.63;;
76176;SDS011;64938;47.696;8.066;2023-04-25T07:13:12;0.60;;;0.60;;
76176;SDS011;64938;47.696;8.066;2023-04-25T07:15:40;0.63;;;0.63;;
76176;SDS011;64938;47.696;8.066;2023-04-25T07:18:07;0.83;;;0.70;;
76176;SDS011;64938;47.696;8.066;2023-04-25T07:20:33;0.70;;;0.70;;
76176;SDS011;64938;47.696;8.066;2023-04-25T07:22:58;0.77;;;0.70;;
76176;SDS011;64938;47.696;8.066;2023-04-25T07:25:24;0.73;;;0.70;;
76176;SDS011;64938;47.696;8.066;2023-04-25T07:27:50;0.90;;;0.80;;
76176;SDS011;64938;47.696;8.066;2023-04-25T07:30:16;0.80;;;0.80;;
76176;SDS011;64938;47.696;8.066;2023-04-25T07:32:42;0.77;;;0.77;;
76176;SDS011;64938;47.696;8.066;2023-04-25T07:35:07;0.70;;;0.67;;
76176;SDS011;64938;47.696;8.066;2023-04-25T07:37:34;0.67;;;0.60;;
76176;SDS011;64938;47.696;8.066;2023-04-25T07:40:00;1.10;;;1.00;;
76176;SDS011;64938;47.696;8.066;2023-04-25T07:42:30;1.40;;;1.10;;
76176;SDS011;64938;47.696;8.066;2023-04-25T07:44:55;0.90;;;0.80;;
76176;SDS011;64938;47.696;8.066;2023-04-25T07:47:21;1.43;;;1.33;;
76176;SDS011;64938;47.696;8.066;2023-04-25T07:49:47;1.10;;;1.00;;
76176;SDS011;64938;47.696;8.066;2023-04-25T07:52:13;1.00;;;0.90;;
76176;SDS011;64938;47.696;8.066;2023-04-25T07:54:39;1.20;;;1.10;;
76176;SDS011;64938;47.696;8.066;2023-04-25T07:57:05;1.47;;;1.00;;
76176;SDS011;64938;47.696;8.066;2023-04-25T07:59:32;1.30;;;1.20;;
76176;SDS011;64938;47.696;8.066;2023-04-25T08:01:58;1.10;;;1.00;;
76176;SDS011;64938;47.696;8.066;2023-04-25T08:04:24;1.40;;;1.23;;
76176;SDS011;64938;47.696;8.066;2023-04-25T08:06:51;1.23;;;1.13;;
76176;SDS011;64938;47.696;8.066;2023-04-25T08:09:19;1.57;;;1.10;;
76176;SDS011;64938;47.696;8.066;2023-04-25T08:11:45;1.00;;;1.00;;
76176;SDS011;64938;47.696;8.066;2023-04-25T08:14:11;1.40;;;1.30;;
76176;SDS011;64938;47.696;8.066;2023-04-25T08:16:38;1.37;;;1.13;;
76176;SDS011;64938;47.696;8.066;2023-04-25T08:19:04;1.63;;;1.50;;
76176;SDS011;64938;47.696;8.066;2023-04-25T08:21:30;1.20;;;1.10;;
76176;SDS011;64938;47.696;8.066;2023-04-25T08:23:56;1.50;;;1.40;;
76176;SDS011;64938;47.696;8.066;2023-04-25T08:26:23;1.43;;;1.33;;
76176;SDS011;64938;47.696;8.066;2023-04-25T08:28:50;2.90;;;1.70;;
76176;SDS011;64938;47.696;8.066;2023-04-25T08:31:15;1.50;;;1.40;;
76176;SDS011;64938;47.696;8.066;2023-04-25T08:33:42;2.90;;;1.90;;
76176;SDS011;64938;47.696;8.066;2023-04-25T08:36:09;3.53;;;1.90;;
76176;SDS011;64938;47.696;8.066;2023-04-25T08:38:34;2.07;;;1.87;;
76176;SDS011;64938;47.696;8.066;2023-04-25T08:41:00;3.50;;;1.60;;
76176;SDS011;64938;47.696;8.066;2023-04-25T08:43:26;1.80;;;1.70;;
76176;SDS011;64938;47.696;8.066;2023-04-25T08:45:54;1.67;;;1.57;;
76176;SDS011;64938;47.696;8.066;2023-04-25T08:48:25;2.30;;;1.50;;
76176;SDS011;64938;47.696;8.066;2023-04-25T08:50:58;2.33;;;2.07;;
76176;SDS011;64938;47.696;8.066;2023-04-25T08:53:29;1.23;;;1.13;;
76176;SDS011;64938;47.696;8.066;2023-04-25T08:55:57;1.47;;;1.37;;
76176;SDS011;64938;47.696;8.066;2023-04-25T08:58:23;1.20;;;1.10;;
76176;SDS011;64938;47.696;8.066;2023-04-25T09:00:50;1.33;;;1.23;;
76176;SDS011;64938;47.696;8.066;2023-04-25T09:03:17;1.17;;;1.00;;
76176;SDS011;64938;47.696;8.066;2023-04-25T09:05:43;1.10;;;1.00;;
76176;SDS011;64938;47.696;8.066;2023-04-25T09:08:09;1.10;;;0.90;;
76176;SDS011;64938;47.696;8.066;2023-04-25T09:10:35;1.30;;;1.20;;
76176;SDS011;64938;47.696;8.066;2023-04-25T09:13:10;1.20;;;0.90;;
76176;SDS011;64938;47.696;8.066;2023-04-25T09:15:54;1.30;;;0.80;;
76176;SDS011;64938;47.696;8.066;2023-04-25T09:18:30;1.80;;;0.90;;
76176;SDS011;64938;47.696;8.066;2023-04-25T09:21:05;1.60;;;0.80;;
76176;SDS011;64938;47.696;8.066;2023-04-25T09:23:49;1.07;;;1.00;;
76176;SDS011;64938;47.696;8.066;2023-04-25T09:26:17;1.53;;;1.07;;
76176;SDS011;64938;47.696;8.066;2023-04-25T09:28:44;1.20;;;1.00;;
76176;SDS011;64938;47.696;8.066;2023-04-25T09:31:11;1.17;;;1.03;;
76176;SDS011;64938;47.696;8.066;2023-04-25T09:33:37;1.00;;;0.97;;
76176;SDS011;64938;47.696;8.066;2023-04-25T09:36:04;1.07;;;1.00;;
76176;SDS011;64938;47.696;8.066;2023-04-25T09:38:32;1.20;;;1.10;;
76176;SDS011;64938;47.696;8.066;2023-04-25T09:41:06;0.90;;;0.90;;
76176;SDS011;64938;47.696;8.066;2023-04-25T09:43:33;1.40;;;1.10;;
76176;SDS011;64938;47.696;8.066;2023-04-25T09:45:58;1.00;;;0.90;;
76176;SDS011;64938;47.696;8.066;2023-04-25T09:48:27;1.17;;;1.07;;
76176;SDS011;64938;47.696;8.066;2023-04-25T09:51:10;1.10;;;1.00;;
76176;SDS011;64938;47.696;8.066;2023-04-25T09:53:43;2.07;;;1.23;;
76176;SDS011;64938;47.696;8.066;2023-04-25T09:56:15;1.00;;;0.90;;
76176;SDS011;64938;47.696;8.066;2023-04-25T09:58:41;1.50;;;1.40;;
76176;SDS011;64938;47.696;8.066;2023-04-25T10:01:17;1.40;;;1.30;;
76176;SDS011;64938;47.696;8.066;2023-04-25T10:03:43;2.63;;;1.70;;
76176;SDS011;64938;47.696;8.066;2023-04-25T10:06:12;1.50;;;1.40;;
76176;SDS011;64938;47.696;8.066;2023-04-25T10:08:39;1.70;;;1.50;;
76176;SDS011;64938;47.696;8.066;2023-04-25T10:11:07;1.67;;;1.57;;
76176;SDS011;64938;47.696;8.066;2023-04-25T10:13:34;3.40;;;1.77;;
76176;SDS011;64938;47.696;8.066;2023-04-25T10:16:01;1.63;;;1.47;;
76176;SDS011;64938;47.696;8.066;2023-04-25T10:18:28;1.33;;;1.23;;
76176;SDS011;64938;47.696;8.066;2023-04-25T10:20:55;1.53;;;1.37;;
76176;SDS011;64938;47.696;8.066;2023-04-25T10:23:22;1.40;;;1.30;;
76176;SDS011;64938;47.696;8.066;2023-04-25T10:25:50;1.53;;;1.40;;
76176;SDS011;64938;47.696;8.066;2023-04-25T10:28:17;1.70;;;1.47;;
76176;SDS011;64938;47.696;8.066;2023-04-25T10:33:29;1.80;;;1.70;;
76176;SDS011;64938;47.696;8.066;2023-04-25T10:36:20;1.80;;;1.70;;
76176;SDS011;64938;47.696;8.066;2023-04-25T10:38:50;1.80;;;1.50;;
76176;SDS011;64938;47.696;8.066;2023-04-25T10:41:18;1.70;;;1.60;;
76176;SDS011;64938;47.696;8.066;2023-04-25T10:43:44;1.73;;;1.60;;
76176;SDS011;64938;47.696;8.066;2023-04-25T10:48:49;1.60;;;1.50;;
76176;SDS011;64938;47.696;8.066;2023-04-25T10:51:30;1.83;;;1.73;;
76176;SDS011;64938;47.696;8.066;2023-04-25T10:53:59;1.73;;;1.63;;
76176;SDS011;64938;47.696;8.066;2023-04-25T11:01:56;1.93;;;1.73;;
76176;SDS011;64938;47.696;8.066;2023-04-25T11:04:28;1.80;;;1.70;;
76176;SDS011;64938;47.696;8.066;2023-04-25T11:07:00;2.17;;;1.70;;
76176;SDS011;64938;47.696;8.066;2023-04-25T11:09:32;1.80;;;1.70;;
76176;SDS011;64938;47.696;8.066;2023-04-25T11:11:58;1.80;;;1.70;;
76176;SDS011;64938;47.696;8.066;2023-04-25T11:14:25;1.53;;;1.40;;
76176;SDS011;64938;47.696;8.066;2023-04-25T11:16:53;1.97;;;1.80;;
76176;SDS011;64938;47.696;8.066;2023-04-25T11:19:21;2.20;;;1.63;;
76176;SDS011;64938;47.696;8.066;2023-04-25T11:21:47;1.67;;;1.57;;
76176;SDS011;64938;47.696;8.066;2023-04-25T11:24:13;2.03;;;1.50;;
76176;SDS011;64938;47.696;8.066;2023-04-25T11:26:43;2.70;;;1.80;;
76176;SDS011;64938;47.696;8.066;2023-04-25T11:29:11;2.40;;;1.90;;
76176;SDS011;64938;47.696;8.066;2023-04-25T11:31:42;2.67;;;1.73;;
76176;SDS011;64938;47.696;8.066;2023-04-25T11:34:10;2.00;;;1.80;;
76176;SDS011;64938;47.696;8.066;2023-04-25T11:36:36;4.20;;;1.93;;
76176;SDS011;64938;47.696;8.066;2023-04-25T11:39:06;2.10;;;1.90;;
76176;SDS011;64938;47.696;8.066;2023-04-25T11:41:34;2.20;;;2.00;;
76176;SDS011;64938;47.696;8.066;2023-04-25T11:44:04;1.80;;;1.70;;
76176;SDS011;64938;47.696;8.066;2023-04-25T11:46:30;2.00;;;1.80;;
76176;SDS011;64938;47.696;8.066;2023-04-25T11:48:59;2.33;;;1.97;;
76176;SDS011;64938;47.696;8.066;2023-04-25T11:51:25;1.93;;;1.83;;
76176;SDS011;64938;47.696;8.066;2023-04-25T11:53:57;3.10;;;2.10;;
76176;SDS011;64938;47.696;8.066;2023-04-25T11:56:22;2.30;;;2.10;;
76176;SDS011;64938;47.696;8.066;2023-04-25T11:59:04;2.00;;;1.80;;
76176;SDS011;64938;47.696;8.066;2023-04-25T12:01:31;2.30;;;2.10;;
76176;SDS011;64938;47.696;8.066;2023-04-25T12:03:58;1.90;;;1.80;;
76176;SDS011;64938;47.696;8.066;2023-04-25T12:06:36;2.17;;;2.00;;
76176;SDS011;64938;47.696;8.066;2023-04-25T12:09:04;2.00;;;1.80;;
76176;SDS011;64938;47.696;8.066;2023-04-25T12:11:40;2.10;;;1.90;;
76176;SDS011;64938;47.696;8.066;2023-04-25T12:14:10;2.00;;;1.90;;
76176;SDS011;64938;47.696;8.066;2023-04-25T12:16:45;2.67;;;2.47;;
76176;SDS011;64938;47.696;8.066;2023-04-25T12:19:14;2.13;;;2.03;;
76176;SDS011;64938;47.696;8.066;2023-04-25T12:21:40;2.70;;;2.00;;
76176;SDS011;64938;47.696;8.066;2023-04-25T12:24:10;2.67;;;2.30;;
76176;SDS011;64938;47.696;8.066;2023-04-25T12:26:54;2.40;;;2.00;;
76176;SDS011;64938;47.696;8.066;2023-04-25T12:29:24;2.00;;;1.90;;
76176;SDS011;64938;47.696;8.066;2023-04-25T12:31:51;2.70;;;2.47;;
76176;SDS011;64938;47.696;8.066;2023-04-25T12:34:18;2.50;;;2.30;;
76176;SDS011;64938;47.696;8.066;2023-04-25T12:36:44;2.30;;;2.10;;
76176;SDS011;64938;47.696;8.066;2023-04-25T12:39:14;2.30;;;2.10;;
76176;SDS011;64938;47.696;8.066;2023-04-25T12:41:41;2.60;;;2.23;;
76176;SDS011;64938;47.696;8.066;2023-04-25T12:44:06;2.33;;;2.07;;
76176;SDS011;64938;47.696;8.066;2023-04-25T12:46:32;4.27;;;2.70;;
76176;SDS011;64938;47.696;8.066;2023-04-25T12:48:57;3.03;;;2.10;;
76176;SDS011;64938;47.696;8.066;2023-04-25T12:51:23;3.20;;;2.10;;
76176;SDS011;64938;47.696;8.066;2023-04-25T12:53:50;3.17;;;2.50;;
76176;SDS011;64938;47.696;8.066;2023-04-25T12:56:17;2.43;;;2.23;;
76176;SDS011;64938;47.696;8.066;2023-04-25T12:59:01;1.73;;;1.63;;
76176;SDS011;64938;47.696;8.066;2023-04-25T13:01:30;2.17;;;1.67;;
76176;SDS011;64938;47.696;8.066;2023-04-25T13:03:57;4.10;;;2.53;;
76176;SDS011;64938;47.696;8.066;2023-04-25T13:06:22;1.60;;;1.50;;
76176;SDS011;64938;47.696;8.066;2023-04-25T13:08:48;1.70;;;1.60;;
76176;SDS011;64938;47.696;8.066;2023-04-25T13:11:14;1.60;;;1.50;;
76176;SDS011;64938;47.696;8.066;2023-04-25T13:13:40;2.03;;;1.80;;
76176;SDS011;64938;47.696;8.066;2023-04-25T13:16:06;1.73;;;1.63;;
76176;SDS011;64938;47.696;8.066;2023-04-25T13:18:39;1.80;;;1.70;;
76176;SDS011;64938;47.696;8.066;2023-04-25T13:21:05;2.13;;;1.67;;
76176;SDS011;64938;47.696;8.066;2023-04-25T13:23:31;2.03;;;1.70;;
76176;SDS011;64938;47.696;8.066;2023-04-25T13:25:56;1.87;;;1.60;;
76176;SDS011;64938;47.696;8.066;2023-04-25T13:28:23;1.87;;;1.67;;
76176;SDS011;64938;47.696;8.066;2023-04-25T13:30:50;2.70;;;1.40;;
76176;SDS011;64938;47.696;8.066;2023-04-25T13:33:17;1.23;;;1.10;;
76176;SDS011;64938;47.696;8.066;2023-04-25T13:35:42;1.53;;;1.43;;
76176;SDS011;64938;47.696;8.066;2023-04-25T13:38:12;1.77;;;1.67;;
76176;SDS011;64938;47.696;8.066;2023-04-25T13:40:38;2.13;;;2.03;;
76176;SDS011;64938;47.696;8.066;2023-04-25T13:43:04;3.80;;;3.00;;
76176;SDS011;64938;47.696;8.066;2023-04-25T13:45:31;3.10;;;2.43;;
76176;SDS011;64938;47.696;8.066;2023-04-25T13:47:57;2.77;;;2.57;;
76176;SDS011;64938;47.696;8.066;2023-04-25T13:50:23;3.73;;;3.20;;
76176;SDS011;64938;47.696;8.066;2023-04-25T13:52:48;3.77;;;3.20;;
76176;SDS011;64938;47.696;8.066;2023-04-25T13:55:14;2.73;;;2.37;;
76176;SDS011;64938;47.696;8.066;2023-04-25T13:57:40;3.33;;;2.93;;
76176;SDS011;64938;47.696;8.066;2023-04-25T14:00:05;2.97;;;2.67;;
76176;SDS011;64938;47.696;8.066;2023-04-25T14:02:36;3.30;;;2.87;;
76176;SDS011;64938;47.696;8.066;2023-04-25T14:05:03;3.10;;;2.80;;
76176;SDS011;64938;47.696;8.066;2023-04-25T14:07:29;3.73;;;3.43;;
76176;SDS011;64938;47.696;8.066;2023-04-25T14:09:55;6.87;;;2.80;;
76176;SDS011;64938;47.696;8.066;2023-04-25T14:12:22;1.97;;;1.60;;
76176;SDS011;64938;47.696;8.066;2023-04-25T14:14:49;1.40;;;1.30;;
76176;SDS011;64938;47.696;8.066;2023-04-25T14:17:14;3.23;;;1.53;;
76176;SDS011;64938;47.696;8.066;2023-04-25T14:19:40;1.73;;;1.40;;
76176;SDS011;64938;47.696;8.066;2023-04-25T14:22:10;1.57;;;1.20;;
76176;SDS011;64938;47.696;8.066;2023-04-25T14:24:36;1.90;;;1.70;;
76176;SDS011;64938;47.696;8.066;2023-04-25T14:27:01;1.40;;;1.30;;
76176;SDS011;64938;47.696;8.066;2023-04-25T14:29:27;1.30;;;1.20;;
76176;SDS011;64938;47.696;8.066;2023-04-25T14:31:53;1.77;;;1.20;;
76176;SDS011;64938;47.696;8.066;2023-04-25T14:34:19;1.27;;;1.10;;
76176;SDS011;64938;47.696;8.066;2023-04-25T14:36:45;3.20;;;1.40;;
76176;SDS011;64938;47.696;8.066;2023-04-25T14:39:12;1.40;;;1.30;;
76176;SDS011;64938;47.696;8.066;2023-04-25T14:41:39;6.63;;;2.00;;
76176;SDS011;64938;47.696;8.066;2023-04-25T14:44:04;1.13;;;1.03;;
76176;SDS011;64938;47.696;8.066;2023-04-25T14:46:30;1.27;;;1.03;;
76176;SDS011;64938;47.696;8.066;2023-04-25T14:48:55;1.30;;;1.20;;
76176;SDS011;64938;47.696;8.066;2023-04-25T14:51:21;2.10;;;1.30;;
76176;SDS011;64938;47.696;8.066;2023-04-25T14:53:47;1.30;;;1.20;;
76176;SDS011;64938;47.696;8.066;2023-04-25T14:56:13;1.80;;;1.70;;
76176;SDS011;64938;47.696;8.066;2023-04-25T14:58:39;1.83;;;1.73;;
76176;SDS011;64938;47.696;8.066;2023-04-25T15:01:05;3.50;;;2.10;;
76176;SDS011;64938;47.696;8.066;2023-04-25T15:03:32;2.23;;;2.00;;
76176;SDS011;64938;47.696;8.066;2023-04-25T15:05:57;2.67;;;2.13;;
76176;SDS011;64938;47.696;8.066;2023-04-25T15:08:23;2.17;;;1.97;;
76176;SDS011;64938;47.696;8.066;2023-04-25T15:10:51;2.07;;;1.97;;
76176;SDS011;64938;47.696;8.066;2023-04-25T15:13:17;3.07;;;2.10;;
76176;SDS011;64938;47.696;8.066;2023-04-25T15:15:44;2.80;;;1.83;;
76176;SDS011;64938;47.696;8.066;2023-04-25T15:18:16;1.97;;;1.87;;
76176;SDS011;64938;47.696;8.066;2023-04-25T15:20:46;2.00;;;1.90;;